sensor_id;sensor_type;location;lat;lon;timestamp;temperature;humidity
66257;DHT22;53049;43.446;3.698;2024-01-30T00:02:16;11.70;99.90
66257;DHT22;53049;43.446;3.698;2024-01-30T00:04:42;11.80;99.90
66257;DHT22;53049;43.446;3.698;2024-01-30T00:07:08;11.80;99.90
66257;DHT22;53049;43.446;3.698;2024-01-30T00:09:34;11.80;99.90
66257;DHT22;53049;43.446;3.698;2024-01-30T00:11:59;11.80;99.90
66257;DHT22;53049;43.446;3.698;2024-01-30T00:14:25;11.80;99.90
66257;DHT22;53049;43.446;3.698;2024-01-30T00:16:51;11.80;99.90
66257;DHT22;53049;43.446;3.698;2024-01-30T00:19:17;11.80;99.90
66257;DHT22;53049;43.446;3.698;2024-01-30T00:21:43;11.70;99.90
66257;DHT22;53049;43.446;3.698;2024-01-30T00:24:09;11.70;99.90
66257;DHT22;53049;43.446;3.698;2024-01-30T00:26:34;11.80;99.90
66257;DHT22;53049;43.446;3.698;2024-01-30T00:29:00;11.70;99.90
66257;DHT22;53049;43.446;3.698;2024-01-30T00:31:26;11.70;99.90
66257;DHT22;53049;43.446;3.698;2024-01-30T00:33:54;11.70;99.90
66257;DHT22;53049;43.446;3.698;2024-01-30T00:36:19;11.70;99.90
66257;DHT22;53049;43.446;3.698;2024-01-30T00:38:45;11.80;99.90
66257;DHT22;53049;43.446;3.698;2024-01-30T00:41:11;11.80;99.90
66257;DHT22;53049;43.446;3.698;2024-01-30T00:43:37;11.80;99.90
66257;DHT22;53049;43.446;3.698;2024-01-30T00:46:03;11.80;99.90
66257;DHT22;53049;43.446;3.698;2024-01-30T00:48:28;11.80;99.90
66257;DHT22;53049;43.446;3.698;2024-01-30T00:50:54;11.80;99.90
66257;DHT22;53049;43.446;3.698;2024-01-30T00:53:20;11.80;99.90
66257;DHT22;53049;43.446;3.698;2024-01-30T00:55:45;11.80;99.90
66257;DHT22;53049;43.446;3.698;2024-01-30T00:58:11;11.80;99.90
66257;DHT22;53049;43.446;3.698;2024-01-30T01:00:37;11.80;99.90
66257;DHT22;53049;43.446;3.698;2024-01-30T01:03:03;11.70;99.90
66257;DHT22;53049;43.446;3.698;2024-01-30T01:05:28;11.70;99.90
66257;DHT22;53049;43.446;3.698;2024-01-30T01:07:54;11.70;99.90
66257;DHT22;53049;43.446;3.698;2024-01-30T01:10:20;11.60;99.90
66257;DHT22;53049;43.446;3.698;2024-01-30T01:12:46;11.60;99.90
66257;DHT22;53049;43.446;3.698;2024-01-30T01:15:12;11.60;99.90
66257;DHT22;53049;43.446;3.698;2024-01-30T01:17:38;11.60;99.90
66257;DHT22;53049;43.446;3.698;2024-01-30T01:20:05;11.50;99.90
66257;DHT22;53049;43.446;3.698;2024-01-30T01:22:31;11.60;99.90
66257;DHT22;53049;43.446;3.698;2024-01-30T01:24:58;11.60;99.90
66257;DHT22;53049;43.446;3.698;2024-01-30T01:27:23;11.60;99.90
66257;DHT22;53049;43.446;3.698;2024-01-30T01:29:49;11.50;99.90
66257;DHT22;53049;43.446;3.698;2024-01-30T01:32:15;11.50;99.90
66257;DHT22;53049;43.446;3.698;2024-01-30T01:34:40;11.60;99.90
66257;DHT22;53049;43.446;3.698;2024-01-30T01:37:06;11.60;99.90
66257;DHT22;53049;43.446;3.698;2024-01-30T01:39:32;11.60;99.90
66257;DHT22;53049;43.446;3.698;2024-01-30T01:41:59;11.60;99.90
66257;DHT22;53049;43.446;3.698;2024-01-30T01:44:26;11.60;99.90
66257;DHT22;53049;43.446;3.698;2024-01-30T01:46:52;11.70;99.90
66257;DHT22;53049;43.446;3.698;2024-01-30T01:49:19;11.70;99.90
66257;DHT22;53049;43.446;3.698;2024-01-30T01:51:47;11.60;99.90
66257;DHT22;53049;43.446;3.698;2024-01-30T01:54:14;11.70;99.90
66257;DHT22;53049;43.446;3.698;2024-01-30T01:56:42;11.60;99.90
66257;DHT22;53049;43.446;3.698;2024-01-30T01:59:08;11.60;99.90
66257;DHT22;53049;43.446;3.698;2024-01-30T02:01:37;11.60;99.90
66257;DHT22;53049;43.446;3.698;2024-01-30T02:04:04;11.60;99.90
66257;DHT22;53049;43.446;3.698;2024-01-30T02:06:31;11.60;99.90
66257;DHT22;53049;43.446;3.698;2024-01-30T02:08:57;11.60;99.90
66257;DHT22;53049;43.446;3.698;2024-01-30T02:11:23;11.60;99.90
66257;DHT22;53049;43.446;3.698;2024-01-30T02:13:50;11.60;99.90
66257;DHT22;53049;43.446;3.698;2024-01-30T02:16:16;11.60;99.90
66257;DHT22;53049;43.446;3.698;2024-01-30T02:18:44;11.60;99.90
66257;DHT22;53049;43.446;3.698;2024-01-30T02:21:16;11.70;99.90
66257;DHT22;53049;43.446;3.698;2024-01-30T02:23:43;11.60;99.90
66257;DHT22;53049;43.446;3.698;2024-01-30T02:26:10;11.60;99.90
66257;DHT22;53049;43.446;3.698;2024-01-30T02:28:36;11.60;99.90
66257;DHT22;53049;43.446;3.698;2024-01-30T02:31:02;11.60;99.90
66257;DHT22;53049;43.446;3.698;2024-01-30T02:33:28;11.60;99.90
66257;DHT22;53049;43.446;3.698;2024-01-30T02:35:53;11.50;99.90
66257;DHT22;53049;43.446;3.698;2024-01-30T02:38:19;11.60;99.90
66257;DHT22;53049;43.446;3.698;2024-01-30T02:40:45;11.50;99.90
66257;DHT22;53049;43.446;3.698;2024-01-30T02:43:10;11.50;99.90
66257;DHT22;53049;43.446;3.698;2024-01-30T02:45:36;11.50;99.90
66257;DHT22;53049;43.446;3.698;2024-01-30T02:48:02;11.50;99.90
66257;DHT22;53049;43.446;3.698;2024-01-30T02:50:27;11.50;99.90
66257;DHT22;53049;43.446;3.698;2024-01-30T02:52:53;11.50;99.90
66257;DHT22;53049;43.446;3.698;2024-01-30T02:55:19;11.50;99.90
66257;DHT22;53049;43.446;3.698;2024-01-30T02:57:45;11.50;99.90
66257;DHT22;53049;43.446;3.698;2024-01-30T03:00:11;11.50;99.90
66257;DHT22;53049;43.446;3.698;2024-01-30T03:02:37;11.50;99.90
66257;DHT22;53049;43.446;3.698;2024-01-30T03:05:03;11.40;99.90
66257;DHT22;53049;43.446;3.698;2024-01-30T03:07:29;11.40;99.90
66257;DHT22;53049;43.446;3.698;2024-01-30T03:09:55;11.40;99.90
66257;DHT22;53049;43.446;3.698;2024-01-30T03:12:21;11.40;99.90
66257;DHT22;53049;43.446;3.698;2024-01-30T03:14:47;11.40;99.90
66257;DHT22;53049;43.446;3.698;2024-01-30T03:17:12;11.40;99.90
66257;DHT22;53049;43.446;3.698;2024-01-30T03:19:39;11.40;99.90
66257;DHT22;53049;43.446;3.698;2024-01-30T03:22:04;11.40;99.90
66257;DHT22;53049;43.446;3.698;2024-01-30T03:24:30;11.40;99.90
66257;DHT22;53049;43.446;3.698;2024-01-30T03:26:56;11.40;99.90
66257;DHT22;53049;43.446;3.698;2024-01-30T03:29:21;11.40;99.90
66257;DHT22;53049;43.446;3.698;2024-01-30T03:31:47;11.30;99.90
66257;DHT22;53049;43.446;3.698;2024-01-30T03:34:13;11.20;99.90
66257;DHT22;53049;43.446;3.698;2024-01-30T03:36:38;11.20;99.90
66257;DHT22;53049;43.446;3.698;2024-01-30T03:39:04;11.20;99.90
66257;DHT22;53049;43.446;3.698;2024-01-30T03:41:30;11.20;99.90
66257;DHT22;53049;43.446;3.698;2024-01-30T03:43:55;11.10;99.90
66257;DHT22;53049;43.446;3.698;2024-01-30T03:46:21;11.10;99.90
66257;DHT22;53049;43.446;3.698;2024-01-30T03:48:47;11.10;99.90
66257;DHT22;53049;43.446;3.698;2024-01-30T03:51:12;11.10;99.90
66257;DHT22;53049;43.446;3.698;2024-01-30T03:53:43;11.10;99.90
66257;DHT22;53049;43.446;3.698;2024-01-30T03:56:09;11.10;99.90
66257;DHT22;53049;43.446;3.698;2024-01-30T03:58:35;11.00;99.90
66257;DHT22;53049;43.446;3.698;2024-01-30T04:01:01;11.00;99.90
66257;DHT22;53049;43.446;3.698;2024-01-30T04:03:27;11.10;99.90
66257;DHT22;53049;43.446;3.698;2024-01-30T04:05:53;11.00;99.90
66257;DHT22;53049;43.446;3.698;2024-01-30T04:08:19;11.00;99.90
66257;DHT22;53049;43.446;3.698;2024-01-30T04:10:46;11.00;99.90
66257;DHT22;53049;43.446;3.698;2024-01-30T04:13:11;11.00;99.90
66257;DHT22;53049;43.446;3.698;2024-01-30T04:15:37;11.00;99.90
66257;DHT22;53049;43.446;3.698;2024-01-30T04:18:03;10.90;99.90
66257;DHT22;53049;43.446;3.698;2024-01-30T04:20:30;10.90;99.90
66257;DHT22;53049;43.446;3.698;2024-01-30T04:22:55;11.00;99.90
66257;DHT22;53049;43.446;3.698;2024-01-30T04:25:21;10.90;99.90
66257;DHT22;53049;43.446;3.698;2024-01-30T04:27:47;10.90;99.90
66257;DHT22;53049;43.446;3.698;2024-01-30T04:30:13;10.80;99.90
66257;DHT22;53049;43.446;3.698;2024-01-30T04:32:39;10.80;99.90
66257;DHT22;53049;43.446;3.698;2024-01-30T04:35:05;10.80;99.90
66257;DHT22;53049;43.446;3.698;2024-01-30T04:37:31;10.80;99.90
66257;DHT22;53049;43.446;3.698;2024-01-30T04:39:56;10.80;99.90
66257;DHT22;53049;43.446;3.698;2024-01-30T04:42:22;10.80;99.90
66257;DHT22;53049;43.446;3.698;2024-01-30T04:44:48;10.80;99.90
66257;DHT22;53049;43.446;3.698;2024-01-30T04:47:15;10.70;99.90
66257;DHT22;53049;43.446;3.698;2024-01-30T04:49:41;10.70;99.90
66257;DHT22;53049;43.446;3.698;2024-01-30T04:52:08;10.70;99.90
66257;DHT22;53049;43.446;3.698;2024-01-30T04:54:34;10.60;99.90
66257;DHT22;53049;43.446;3.698;2024-01-30T04:57:01;10.60;99.90
66257;DHT22;53049;43.446;3.698;2024-01-30T04:59:26;10.60;99.90
66257;DHT22;53049;43.446;3.698;2024-01-30T05:01:52;10.60;99.90
66257;DHT22;53049;43.446;3.698;2024-01-30T05:04:18;10.60;99.90
66257;DHT22;53049;43.446;3.698;2024-01-30T05:06:43;10.60;99.90
66257;DHT22;53049;43.446;3.698;2024-01-30T05:09:09;10.60;99.90
66257;DHT22;53049;43.446;3.698;2024-01-30T05:11:41;10.60;99.90
66257;DHT22;53049;43.446;3.698;2024-01-30T05:14:07;10.60;99.90
66257;DHT22;53049;43.446;3.698;2024-01-30T05:16:35;10.50;99.90
66257;DHT22;53049;43.446;3.698;2024-01-30T05:19:00;10.60;99.90
66257;DHT22;53049;43.446;3.698;2024-01-30T05:21:26;10.60;99.90
66257;DHT22;53049;43.446;3.698;2024-01-30T05:23:52;10.70;99.90
66257;DHT22;53049;43.446;3.698;2024-01-30T05:26:17;10.60;99.90
66257;DHT22;53049;43.446;3.698;2024-01-30T05:28:43;10.60;99.90
66257;DHT22;53049;43.446;3.698;2024-01-30T05:31:12;10.60;99.90
66257;DHT22;53049;43.446;3.698;2024-01-30T05:33:37;10.60;99.90
66257;DHT22;53049;43.446;3.698;2024-01-30T05:36:03;10.60;99.90
66257;DHT22;53049;43.446;3.698;2024-01-30T05:38:29;10.70;99.90
66257;DHT22;53049;43.446;3.698;2024-01-30T05:40:55;10.60;99.90
66257;DHT22;53049;43.446;3.698;2024-01-30T05:43:23;10.70;99.90
66257;DHT22;53049;43.446;3.698;2024-01-30T05:45:49;10.70;99.90
66257;DHT22;53049;43.446;3.698;2024-01-30T05:48:15;10.70;99.90
66257;DHT22;53049;43.446;3.698;2024-01-30T05:50:41;10.70;99.90
66257;DHT22;53049;43.446;3.698;2024-01-30T05:53:07;10.70;99.90
66257;DHT22;53049;43.446;3.698;2024-01-30T05:55:32;10.60;99.90
66257;DHT22;53049;43.446;3.698;2024-01-30T05:57:58;10.60;99.90
66257;DHT22;53049;43.446;3.698;2024-01-30T06:00:24;10.60;99.90
66257;DHT22;53049;43.446;3.698;2024-01-30T06:02:49;10.60;99.90
66257;DHT22;53049;43.446;3.698;2024-01-30T06:05:15;10.60;99.90
66257;DHT22;53049;43.446;3.698;2024-01-30T06:07:41;10.60;99.90
66257;DHT22;53049;43.446;3.698;2024-01-30T06:10:07;10.60;99.90
66257;DHT22;53049;43.446;3.698;2024-01-30T06:12:34;10.60;99.90
66257;DHT22;53049;43.446;3.698;2024-01-30T06:15:01;10.50;99.90
66257;DHT22;53049;43.446;3.698;2024-01-30T06:17:26;10.50;99.90
66257;DHT22;53049;43.446;3.698;2024-01-30T06:19:52;10.50;99.90
66257;DHT22;53049;43.446;3.698;2024-01-30T06:22:18;10.50;99.90
66257;DHT22;53049;43.446;3.698;2024-01-30T06:24:43;10.40;99.90
66257;DHT22;53049;43.446;3.698;2024-01-30T06:27:16;10.40;99.90
66257;DHT22;53049;43.446;3.698;2024-01-30T06:29:43;10.30;99.90
66257;DHT22;53049;43.446;3.698;2024-01-30T06:32:09;10.30;99.90
66257;DHT22;53049;43.446;3.698;2024-01-30T06:34:34;10.20;99.90
66257;DHT22;53049;43.446;3.698;2024-01-30T06:37:00;10.10;99.90
66257;DHT22;53049;43.446;3.698;2024-01-30T06:39:26;10.10;99.90
66257;DHT22;53049;43.446;3.698;2024-01-30T06:41:52;10.00;99.90
66257;DHT22;53049;43.446;3.698;2024-01-30T06:44:18;10.00;99.90
66257;DHT22;53049;43.446;3.698;2024-01-30T06:46:43;10.00;99.90
66257;DHT22;53049;43.446;3.698;2024-01-30T06:49:09;10.00;99.90
66257;DHT22;53049;43.446;3.698;2024-01-30T06:51:35;10.00;99.90
66257;DHT22;53049;43.446;3.698;2024-01-30T06:54:00;9.90;99.90
66257;DHT22;53049;43.446;3.698;2024-01-30T06:56:26;9.90;99.90
66257;DHT22;53049;43.446;3.698;2024-01-30T06:58:52;9.80;99.90
66257;DHT22;53049;43.446;3.698;2024-01-30T07:01:18;9.80;99.90
66257;DHT22;53049;43.446;3.698;2024-01-30T07:03:43;9.80;99.90
66257;DHT22;53049;43.446;3.698;2024-01-30T07:06:10;9.90;99.90
66257;DHT22;53049;43.446;3.698;2024-01-30T07:08:36;9.80;99.90
66257;DHT22;53049;43.446;3.698;2024-01-30T07:11:05;9.80;99.90
66257;DHT22;53049;43.446;3.698;2024-01-30T07:13:31;9.80;99.90
66257;DHT22;53049;43.446;3.698;2024-01-30T07:15:57;9.80;99.90
66257;DHT22;53049;43.446;3.698;2024-01-30T07:18:22;9.80;99.90
66257;DHT22;53049;43.446;3.698;2024-01-30T07:20:48;9.80;99.90
66257;DHT22;53049;43.446;3.698;2024-01-30T07:23:17;9.80;99.90
66257;DHT22;53049;43.446;3.698;2024-01-30T07:25:46;9.70;99.90
66257;DHT22;53049;43.446;3.698;2024-01-30T07:28:14;9.80;99.90
66257;DHT22;53049;43.446;3.698;2024-01-30T07:30:42;9.80;99.90
66257;DHT22;53049;43.446;3.698;2024-01-30T07:33:08;9.80;99.90
66257;DHT22;53049;43.446;3.698;2024-01-30T07:35:35;9.80;99.90
66257;DHT22;53049;43.446;3.698;2024-01-30T07:38:00;9.80;99.90
66257;DHT22;53049;43.446;3.698;2024-01-30T07:40:26;9.80;99.90
66257;DHT22;53049;43.446;3.698;2024-01-30T07:42:53;9.70;99.90
66257;DHT22;53049;43.446;3.698;2024-01-30T07:45:19;9.80;99.90
66257;DHT22;53049;43.446;3.698;2024-01-30T07:47:49;9.80;99.90
66257;DHT22;53049;43.446;3.698;2024-01-30T07:50:15;9.70;99.90
66257;DHT22;53049;43.446;3.698;2024-01-30T07:52:42;9.70;99.90
66257;DHT22;53049;43.446;3.698;2024-01-30T07:55:08;9.70;99.90
66257;DHT22;53049;43.446;3.698;2024-01-30T07:57:34;9.70;99.90
66257;DHT22;53049;43.446;3.698;2024-01-30T08:00:00;9.60;99.90
66257;DHT22;53049;43.446;3.698;2024-01-30T08:02:26;9.70;99.90
66257;DHT22;53049;43.446;3.698;2024-01-30T08:04:52;9.80;99.90
66257;DHT22;53049;43.446;3.698;2024-01-30T08:07:17;9.80;99.90
66257;DHT22;53049;43.446;3.698;2024-01-30T08:09:46;9.70;99.90
66257;DHT22;53049;43.446;3.698;2024-01-30T08:12:12;9.70;99.90
66257;DHT22;53049;43.446;3.698;2024-01-30T08:14:39;9.70;99.90
66257;DHT22;53049;43.446;3.698;2024-01-30T08:17:05;9.70;99.90
66257;DHT22;53049;43.446;3.698;2024-01-30T08:19:33;9.70;99.90
66257;DHT22;53049;43.446;3.698;2024-01-30T08:21:58;9.70;99.90
66257;DHT22;53049;43.446;3.698;2024-01-30T08:24:24;9.80;99.90
66257;DHT22;53049;43.446;3.698;2024-01-30T08:26:50;9.80;99.90
66257;DHT22;53049;43.446;3.698;2024-01-30T08:29:15;9.80;99.90
66257;DHT22;53049;43.446;3.698;2024-01-30T08:31:41;9.80;99.90
66257;DHT22;53049;43.446;3.698;2024-01-30T08:34:07;9.90;99.90
66257;DHT22;53049;43.446;3.698;2024-01-30T08:36:32;10.00;99.90
66257;DHT22;53049;43.446;3.698;2024-01-30T08:38:58;10.10;99.90
66257;DHT22;53049;43.446;3.698;2024-01-30T08:41:24;10.00;99.90
66257;DHT22;53049;43.446;3.698;2024-01-30T08:43:49;10.10;99.90
66257;DHT22;53049;43.446;3.698;2024-01-30T08:46:19;10.20;99.90
66257;DHT22;53049;43.446;3.698;2024-01-30T08:48:46;10.20;99.90
66257;DHT22;53049;43.446;3.698;2024-01-30T08:51:12;10.30;99.90
66257;DHT22;53049;43.446;3.698;2024-01-30T08:53:38;10.30;99.90
66257;DHT22;53049;43.446;3.698;2024-01-30T08:56:04;10.30;99.90
66257;DHT22;53049;43.446;3.698;2024-01-30T08:58:30;10.40;99.90
66257;DHT22;53049;43.446;3.698;2024-01-30T09:00:56;10.40;99.90
66257;DHT22;53049;43.446;3.698;2024-01-30T09:03:21;10.50;99.90
66257;DHT22;53049;43.446;3.698;2024-01-30T09:05:47;10.60;99.90
66257;DHT22;53049;43.446;3.698;2024-01-30T09:08:13;10.60;99.90
66257;DHT22;53049;43.446;3.698;2024-01-30T09:10:39;10.60;99.90
66257;DHT22;53049;43.446;3.698;2024-01-30T09:13:04;10.70;99.90
66257;DHT22;53049;43.446;3.698;2024-01-30T09:15:30;10.80;99.90
66257;DHT22;53049;43.446;3.698;2024-01-30T09:17:56;10.90;99.90
66257;DHT22;53049;43.446;3.698;2024-01-30T09:20:21;10.90;99.90
66257;DHT22;53049;43.446;3.698;2024-01-30T09:22:48;11.00;99.90
66257;DHT22;53049;43.446;3.698;2024-01-30T09:25:15;11.00;99.90
66257;DHT22;53049;43.446;3.698;2024-01-30T09:27:40;11.10;99.90
66257;DHT22;53049;43.446;3.698;2024-01-30T09:30:07;11.20;99.90
66257;DHT22;53049;43.446;3.698;2024-01-30T09:32:32;11.20;99.90
66257;DHT22;53049;43.446;3.698;2024-01-30T09:34:58;11.20;99.90
66257;DHT22;53049;43.446;3.698;2024-01-30T09:37:24;11.40;99.90
66257;DHT22;53049;43.446;3.698;2024-01-30T09:39:49;11.40;99.90
66257;DHT22;53049;43.446;3.698;2024-01-30T09:44:51;11.50;99.90
66257;DHT22;53049;43.446;3.698;2024-01-30T09:47:20;11.60;99.90
66257;DHT22;53049;43.446;3.698;2024-01-30T09:49:46;11.70;99.90
66257;DHT22;53049;43.446;3.698;2024-01-30T09:52:12;11.60;99.90
66257;DHT22;53049;43.446;3.698;2024-01-30T09:54:38;11.60;99.90
66257;DHT22;53049;43.446;3.698;2024-01-30T09:57:04;11.70;99.90
66257;DHT22;53049;43.446;3.698;2024-01-30T09:59:31;11.60;99.90
66257;DHT22;53049;43.446;3.698;2024-01-30T10:01:57;11.60;99.90
66257;DHT22;53049;43.446;3.698;2024-01-30T10:04:23;11.60;99.90
66257;DHT22;53049;43.446;3.698;2024-01-30T10:06:49;11.60;99.90
66257;DHT22;53049;43.446;3.698;2024-01-30T10:09:16;11.60;99.90
66257;DHT22;53049;43.446;3.698;2024-01-30T10:11:42;11.60;99.90
66257;DHT22;53049;43.446;3.698;2024-01-30T10:14:07;11.60;99.90
66257;DHT22;53049;43.446;3.698;2024-01-30T10:16:34;11.60;99.90
66257;DHT22;53049;43.446;3.698;2024-01-30T10:19:00;11.70;99.90
66257;DHT22;53049;43.446;3.698;2024-01-30T10:21:25;11.80;99.90
66257;DHT22;53049;43.446;3.698;2024-01-30T10:23:51;11.80;99.90
66257;DHT22;53049;43.446;3.698;2024-01-30T10:26:17;11.90;99.90
66257;DHT22;53049;43.446;3.698;2024-01-30T10:28:43;12.00;99.90
66257;DHT22;53049;43.446;3.698;2024-01-30T10:31:09;12.00;99.90
66257;DHT22;53049;43.446;3.698;2024-01-30T10:33:35;12.10;99.90
66257;DHT22;53049;43.446;3.698;2024-01-30T10:36:02;12.20;99.90
66257;DHT22;53049;43.446;3.698;2024-01-30T10:38:29;12.20;99.90
66257;DHT22;53049;43.446;3.698;2024-01-30T10:40:59;12.20;99.90
66257;DHT22;53049;43.446;3.698;2024-01-30T10:43:35;12.20;99.90
66257;DHT22;53049;43.446;3.698;2024-01-30T10:48:36;12.30;99.90
66257;DHT22;53049;43.446;3.698;2024-01-30T10:51:09;12.30;99.90
66257;DHT22;53049;43.446;3.698;2024-01-30T10:53:38;12.20;99.90
66257;DHT22;53049;43.446;3.698;2024-01-30T10:56:04;12.20;99.90
66257;DHT22;53049;43.446;3.698;2024-01-30T10:58:31;12.30;99.90
66257;DHT22;53049;43.446;3.698;2024-01-30T11:00:57;12.20;99.90
66257;DHT22;53049;43.446;3.698;2024-01-30T11:03:23;12.20;99.90
66257;DHT22;53049;43.446;3.698;2024-01-30T11:05:52;12.20;99.90
66257;DHT22;53049;43.446;3.698;2024-01-30T11:08:27;12.30;99.90
66257;DHT22;53049;43.446;3.698;2024-01-30T11:10:57;12.30;99.90
66257;DHT22;53049;43.446;3.698;2024-01-30T11:13:31;12.30;99.90
66257;DHT22;53049;43.446;3.698;2024-01-30T11:16:04;12.30;99.90
66257;DHT22;53049;43.446;3.698;2024-01-30T11:18:31;12.40;99.90
66257;DHT22;53049;43.446;3.698;2024-01-30T11:20:58;12.40;99.90
66257;DHT22;53049;43.446;3.698;2024-01-30T11:23:25;12.40;99.90
66257;DHT22;53049;43.446;3.698;2024-01-30T11:25:52;12.50;99.90
66257;DHT22;53049;43.446;3.698;2024-01-30T11:28:18;12.50;99.90
66257;DHT22;53049;43.446;3.698;2024-01-30T11:30:45;12.60;99.90
66257;DHT22;53049;43.446;3.698;2024-01-30T11:33:13;12.60;99.90
66257;DHT22;53049;43.446;3.698;2024-01-30T11:35:43;12.60;99.90
66257;DHT22;53049;43.446;3.698;2024-01-30T11:38:11;12.60;99.90
66257;DHT22;53049;43.446;3.698;2024-01-30T11:40:39;12.60;99.90
66257;DHT22;53049;43.446;3.698;2024-01-30T11:43:07;12.70;99.90
66257;DHT22;53049;43.446;3.698;2024-01-30T11:45:33;12.70;99.90
66257;DHT22;53049;43.446;3.698;2024-01-30T11:47:59;12.70;99.90
66257;DHT22;53049;43.446;3.698;2024-01-30T11:50:35;12.70;99.90
66257;DHT22;53049;43.446;3.698;2024-01-30T11:53:00;12.70;99.90
66257;DHT22;53049;43.446;3.698;2024-01-30T11:55:27;12.70;99.90
66257;DHT22;53049;43.446;3.698;2024-01-30T11:57:57;12.60;99.90
66257;DHT22;53049;43.446;3.698;2024-01-30T12:00:24;12.70;99.90
66257;DHT22;53049;43.446;3.698;2024-01-30T12:02:54;12.70;99.90
66257;DHT22;53049;43.446;3.698;2024-01-30T12:05:24;12.70;99.90
66257;DHT22;53049;43.446;3.698;2024-01-30T12:07:50;12.70;99.90
66257;DHT22;53049;43.446;3.698;2024-01-30T12:10:16;12.80;99.90
66257;DHT22;53049;43.446;3.698;2024-01-30T12:12:48;12.80;99.90
66257;DHT22;53049;43.446;3.698;2024-01-30T12:15:14;12.80;99.90
66257;DHT22;53049;43.446;3.698;2024-01-30T12:17:41;12.80;99.90
66257;DHT22;53049;43.446;3.698;2024-01-30T12:20:07;12.80;99.90
66257;DHT22;53049;43.446;3.698;2024-01-30T12:22:38;12.90;99.90
66257;DHT22;53049;43.446;3.698;2024-01-30T12:25:07;12.90;99.90
66257;DHT22;53049;43.446;3.698;2024-01-30T12:27:33;12.90;99.90
66257;DHT22;53049;43.446;3.698;2024-01-30T12:29:59;13.00;99.90
66257;DHT22;53049;43.446;3.698;2024-01-30T12:32:25;13.00;99.90
66257;DHT22;53049;43.446;3.698;2024-01-30T12:34:55;13.00;99.90
66257;DHT22;53049;43.446;3.698;2024-01-30T12:37:21;13.00;99.90
66257;DHT22;53049;43.446;3.698;2024-01-30T12:39:51;13.10;99.90
66257;DHT22;53049;43.446;3.698;2024-01-30T12:42:16;13.20;99.90
66257;DHT22;53049;43.446;3.698;2024-01-30T12:44:43;13.20;99.90
66257;DHT22;53049;43.446;3.698;2024-01-30T12:47:09;13.20;99.90
66257;DHT22;53049;43.446;3.698;2024-01-30T12:49:38;13.20;99.90
66257;DHT22;53049;43.446;3.698;2024-01-30T12:52:04;13.30;99.90
66257;DHT22;53049;43.446;3.698;2024-01-30T12:54:30;13.20;99.90
66257;DHT22;53049;43.446;3.698;2024-01-30T12:56:56;13.30;99.90
66257;DHT22;53049;43.446;3.698;2024-01-30T12:59:22;13.30;99.90
66257;DHT22;53049;43.446;3.698;2024-01-30T13:01:48;13.30;99.90
66257;DHT22;53049;43.446;3.698;2024-01-30T13:04:14;13.40;99.90
66257;DHT22;53049;43.446;3.698;2024-01-30T13:06:41;13.40;99.90
66257;DHT22;53049;43.446;3.698;2024-01-30T13:09:07;13.40;99.90
66257;DHT22;53049;43.446;3.698;2024-01-30T13:11:33;13.40;99.90
66257;DHT22;53049;43.446;3.698;2024-01-30T13:13:59;13.30;99.90
66257;DHT22;53049;43.446;3.698;2024-01-30T13:16:25;13.40;99.90
66257;DHT22;53049;43.446;3.698;2024-01-30T13:18:51;13.40;99.90
66257;DHT22;53049;43.446;3.698;2024-01-30T13:21:17;13.40;99.90
66257;DHT22;53049;43.446;3.698;2024-01-30T13:23:42;13.40;99.90
66257;DHT22;53049;43.446;3.698;2024-01-30T13:26:08;13.30;99.90
66257;DHT22;53049;43.446;3.698;2024-01-30T13:28:34;13.30;99.90
66257;DHT22;53049;43.446;3.698;2024-01-30T13:31:00;13.40;99.90
66257;DHT22;53049;43.446;3.698;2024-01-30T13:33:26;13.30;99.90
66257;DHT22;53049;43.446;3.698;2024-01-30T13:35:52;13.30;99.90
66257;DHT22;53049;43.446;3.698;2024-01-30T13:38:17;13.30;99.90
66257;DHT22;53049;43.446;3.698;2024-01-30T13:40:43;13.40;99.90
66257;DHT22;53049;43.446;3.698;2024-01-30T13:43:09;13.40;99.90
66257;DHT22;53049;43.446;3.698;2024-01-30T13:45:34;13.30;99.90
66257;DHT22;53049;43.446;3.698;2024-01-30T13:48:00;13.30;99.90
66257;DHT22;53049;43.446;3.698;2024-01-30T13:50:26;13.30;99.90
66257;DHT22;53049;43.446;3.698;2024-01-30T13:52:52;13.30;99.90
66257;DHT22;53049;43.446;3.698;2024-01-30T13:55:18;13.40;99.90
66257;DHT22;53049;43.446;3.698;2024-01-30T13:57:43;13.40;99.90
66257;DHT22;53049;43.446;3.698;2024-01-30T14:00:09;13.40;99.90
66257;DHT22;53049;43.446;3.698;2024-01-30T14:02:35;13.40;99.90
66257;DHT22;53049;43.446;3.698;2024-01-30T14:05:01;13.40;99.90
66257;DHT22;53049;43.446;3.698;2024-01-30T14:07:27;13.40;99.90
66257;DHT22;53049;43.446;3.698;2024-01-30T14:09:53;13.40;99.90
66257;DHT22;53049;43.446;3.698;2024-01-30T14:12:18;13.30;99.90
66257;DHT22;53049;43.446;3.698;2024-01-30T14:14:44;13.30;99.90
66257;DHT22;53049;43.446;3.698;2024-01-30T14:17:10;13.30;99.90
66257;DHT22;53049;43.446;3.698;2024-01-30T14:19:35;13.30;99.90
66257;DHT22;53049;43.446;3.698;2024-01-30T14:22:01;13.20;99.90
66257;DHT22;53049;43.446;3.698;2024-01-30T14:24:27;13.20;99.90
66257;DHT22;53049;43.446;3.698;2024-01-30T14:26:53;13.20;99.90
66257;DHT22;53049;43.446;3.698;2024-01-30T14:29:19;13.20;99.90
66257;DHT22;53049;43.446;3.698;2024-01-30T14:31:44;13.20;99.90
66257;DHT22;53049;43.446;3.698;2024-01-30T14:34:10;13.20;99.90
66257;DHT22;53049;43.446;3.698;2024-01-30T14:36:39;13.20;99.90
66257;DHT22;53049;43.446;3.698;2024-01-30T14:39:05;13.20;99.90
66257;DHT22;53049;43.446;3.698;2024-01-30T14:41:32;13.20;99.90
66257;DHT22;53049;43.446;3.698;2024-01-30T14:43:58;13.20;99.90
66257;DHT22;53049;43.446;3.698;2024-01-30T14:46:24;13.20;99.90
66257;DHT22;53049;43.446;3.698;2024-01-30T14:48:52;13.20;99.90
66257;DHT22;53049;43.446;3.698;2024-01-30T14:51:18;13.10;99.90
66257;DHT22;53049;43.446;3.698;2024-01-30T14:53:44;13.10;99.90
66257;DHT22;53049;43.446;3.698;2024-01-30T14:56:10;13.10;99.90
66257;DHT22;53049;43.446;3.698;2024-01-30T14:58:37;13.10;99.90
66257;DHT22;53049;43.446;3.698;2024-01-30T15:01:03;13.10;99.90
66257;DHT22;53049;43.446;3.698;2024-01-30T15:03:28;13.10;99.90
66257;DHT22;53049;43.446;3.698;2024-01-30T15:05:57;13.10;99.90
66257;DHT22;53049;43.446;3.698;2024-01-30T15:08:23;13.10;99.90
66257;DHT22;53049;43.446;3.698;2024-01-30T15:10:49;13.10;99.90
66257;DHT22;53049;43.446;3.698;2024-01-30T15:13:16;13.10;99.90
66257;DHT22;53049;43.446;3.698;2024-01-30T15:15:42;13.10;99.90
66257;DHT22;53049;43.446;3.698;2024-01-30T15:18:08;13.10;99.90
66257;DHT22;53049;43.446;3.698;2024-01-30T15:20:36;13.10;99.90
66257;DHT22;53049;43.446;3.698;2024-01-30T15:23:02;13.00;99.90
66257;DHT22;53049;43.446;3.698;2024-01-30T15:25:28;13.00;99.90
66257;DHT22;53049;43.446;3.698;2024-01-30T15:27:54;13.00;99.90
66257;DHT22;53049;43.446;3.698;2024-01-30T15:30:20;13.00;99.90
66257;DHT22;53049;43.446;3.698;2024-01-30T15:32:46;13.00;99.90